Terminal Aerodrome Forecast
Issued by NWS

Home | Current Version | Previous Version | Graphics & Text | Print | Product List | Glossary On
Versions: 1 2 3 4 5 6 7 8 9 10 11 12 13 14 15 16 17 18 19 20 21 22 23 24 25 26 27 28 29 30 31 32 33 34 35 36 37 38 39 40
000
FTUS43 KLOT 211900 AAA
TAFMDW
TAF AMD
KMDW 211920Z 2119/2218 18005KT P6SM SCT015 SCT030 OVC150
      TEMPO 2119/2120 BKN015 BKN050 OVC150
     FM212030 19006KT P6SM VCTS SCT035 BKN060CB OVC150
     FM212300 20005KT P6SM VCSH SCT040 BKN100
      TEMPO 2123/2201 -SHRA SCT016 BKN040
     FM220600 19005KT P6SM VCSH SCT050 BKN100 PROB30 2207/2211 4SM
      -TSRA BR BKN050CB
     FM221200 22004KT 4SM BR BKN040
     FM221600 25007KT P6SM SCT040 BKN100=

USA.gov is the U.S. government's official web portal to all federal, state and local government web resources and services.